Time;durP1;ratioP1;P1;durP2;ratioP2;P2;SDS_P1;SDS_P2;PMS_P1;PMS_P2;Temp;Humidity;BMP_temperature;BMP_pressure;BME280_temperature;BME280_humidity;BME280_pressure;Samples;Min_cycle;Max_cycle;Signal;HPM_P1;HPM_P2
2023/07/31 00:02:21;;;;;;;13.18;4.85;;;;;;;15.68;100.00;100949.81;4993110;28;20022;-87
2023/07/31 00:04:46;;;;;;;12.10;5.00;;;;;;;15.69;100.00;100950.69;4988583;28;20053;-87
2023/07/31 00:07:12;;;;;;;10.43;4.88;;;;;;;15.69;100.00;100950.69;4979843;28;20050;-87
2023/07/31 00:09:37;;;;;;;13.10;5.20;;;;;;;15.69;100.00;100945.44;4974319;28;20041;-87
2023/07/31 00:12:03;;;;;;;10.70;4.60;;;;;;;15.68;100.00;100948.97;4975747;28;20027;-87
2023/07/31 00:14:28;;;;;;;12.85;5.53;;;;;;;15.70;100.00;100957.63;4988077;28;20031;-87
2023/07/31 00:16:53;;;;;;;10.18;4.80;;;;;;;15.68;100.00;100943.72;4977952;28;20026;-86
2023/07/31 00:19:19;;;;;;;10.98;4.80;;;;;;;15.69;100.00;100946.25;4987522;28;20030;-87
2023/07/31 00:21:44;;;;;;;12.68;4.50;;;;;;;15.69;100.00;100950.69;4973205;28;20030;-87
2023/07/31 00:24:09;;;;;;;12.00;4.50;;;;;;;15.68;100.00;100948.97;4986659;28;20045;-87
2023/07/31 00:26:35;;;;;;;12.80;4.70;;;;;;;15.67;100.00;100934.16;4973581;28;20377;-86
2023/07/31 00:29:00;;;;;;;13.05;4.65;;;;;;;15.67;100.00;100944.66;4988673;28;20414;-87
2023/07/31 00:31:25;;;;;;;11.88;4.55;;;;;;;15.67;100.00;100945.47;4992103;28;20080;-86
2023/07/31 00:33:51;;;;;;;11.93;4.20;;;;;;;15.66;100.00;100946.41;4975190;28;20037;-87
2023/07/31 00:36:17;;;;;;;11.15;4.15;;;;;;;15.67;100.00;100942.84;4981179;28;20120;-87
2023/07/31 00:38:43;;;;;;;11.30;4.53;;;;;;;15.67;100.00;100942.03;4977852;28;20058;-87
2023/07/31 00:41:08;;;;;;;10.88;4.43;;;;;;;15.67;100.00;100936.78;4981906;28;20435;-87
2023/07/31 00:43:34;;;;;;;11.02;3.78;;;;;;;15.66;100.00;100935.06;4975945;28;20034;-86
2023/07/31 00:45:59;;;;;;;10.57;3.85;;;;;;;15.67;100.00;100926.28;4975880;28;20023;-87
2023/07/31 00:48:25;;;;;;;11.57;3.92;;;;;;;15.67;100.00;100937.63;4980266;28;20442;-87
2023/07/31 00:50:51;;;;;;;13.35;4.10;;;;;;;15.66;100.00;100940.31;4975336;28;20533;-87
2023/07/31 00:53:16;;;;;;;11.40;4.00;;;;;;;15.67;100.00;100935.00;4976343;28;20125;-86
2023/07/31 00:55:42;;;;;;;10.93;3.80;;;;;;;15.66;100.00;100935.91;4981441;28;20026;-87
2023/07/31 00:58:07;;;;;;;8.60;3.20;;;;;;;15.65;100.00;100926.34;4996401;28;20026;-87
2023/07/31 01:00:33;;;;;;;10.20;3.85;;;;;;;15.67;100.00;100931.53;4977387;28;20074;-87
2023/07/31 01:02:58;;;;;;;10.57;4.40;;;;;;;15.65;100.00;100923.72;4983799;28;20062;-86
2023/07/31 01:05:33;;;;;;;9.43;3.42;;;;;;;15.66;100.00;100924.59;4985891;28;20041;-87
2023/07/31 01:08:15;;;;;;;10.50;3.78;;;;;;;15.66;100.00;100924.59;4990009;28;20031;-87
2023/07/31 01:10:48;;;;;;;9.20;3.58;;;;;;;15.67;100.00;100915.78;4977042;28;20039;-86
2023/07/31 01:13:15;;;;;;;8.43;3.40;;;;;;;15.66;100.00;100917.56;4976474;28;20023;-87
2023/07/31 01:15:40;;;;;;;9.68;3.80;;;;;;;15.67;100.00;100921.03;4976043;28;20055;-87
2023/07/31 01:18:05;;;;;;;11.23;3.13;;;;;;;15.67;100.00;100915.78;4975915;28;20050;-87
2023/07/31 01:20:32;;;;;;;8.73;3.20;;;;;;;15.68;100.00;100917.50;4988048;28;20387;-87
2023/07/31 01:23:34;;;;;;;9.18;3.45;;;;;;;15.66;100.00;100914.94;4975954;28;20042;-87
2023/07/31 01:26:08;;;;;;;10.18;3.08;;;;;;;15.65;100.00;100915.00;4976414;28;20029;-86
2023/07/31 01:28:50;;;;;;;7.63;3.10;;;;;;;15.63;100.00;100915.94;4975685;28;20042;-87
2023/07/31 01:31:21;;;;;;;11.68;3.65;;;;;;;15.63;100.00;100918.56;4984429;28;20084;-87
2023/07/31 01:33:47;;;;;;;10.40;3.20;;;;;;;15.63;99.68;100915.06;4988633;28;20054;-86
2023/07/31 01:36:12;;;;;;;10.60;3.10;;;;;;;15.63;99.99;100920.31;4989786;28;20482;-88
2023/07/31 01:38:37;;;;;;;10.30;3.20;;;;;;;15.63;100.00;100920.31;4976220;28;20031;-88
2023/07/31 01:41:02;;;;;;;10.23;3.55;;;;;;;15.61;100.00;100912.53;4976102;28;20019;-88
2023/07/31 01:43:28;;;;;;;9.85;3.35;;;;;;;15.63;99.37;100921.19;4975739;28;20027;-87
2023/07/31 01:45:53;;;;;;;8.95;3.47;;;;;;;15.63;99.46;100905.44;4992563;28;20026;-87
2023/07/31 01:48:18;;;;;;;8.68;3.25;;;;;;;15.65;99.01;100912.38;4991226;28;20031;-87
2023/07/31 01:50:44;;;;;;;9.07;3.30;;;;;;;15.64;99.05;100911.53;4985231;28;20030;-87
2023/07/31 01:53:09;;;;;;;9.73;3.45;;;;;;;15.65;98.89;100907.16;4980012;28;20076;-86
2023/07/31 01:55:34;;;;;;;7.78;2.78;;;;;;;15.65;98.48;100907.97;4983821;28;20053;-87
2023/07/31 01:57:59;;;;;;;11.57;3.60;;;;;;;15.64;98.62;100911.53;4988136;28;20065;-87
2023/07/31 02:00:25;;;;;;;8.75;3.40;;;;;;;15.64;98.42;100911.53;4986358;28;20027;-88
2023/07/31 02:02:50;;;;;;;6.57;3.15;;;;;;;15.63;98.30;100900.19;4986023;28;20034;-87
2023/07/31 02:05:15;;;;;;;12.00;3.80;;;;;;;15.64;98.40;100903.66;4976911;28;20027;-88
2023/07/31 02:07:41;;;;;;;10.55;3.53;;;;;;;15.61;98.06;100896.78;4986522;28;20061;-87
2023/07/31 02:10:06;;;;;;;8.93;3.28;;;;;;;15.61;97.79;100901.19;4983968;28;20373;-87
2023/07/31 02:12:33;;;;;;;9.45;3.50;;;;;;;15.61;97.60;100901.19;4986909;28;20030;-86
2023/07/31 02:14:58;;;;;;;10.75;3.15;;;;;;;15.61;97.31;100894.16;4976132;28;20026;-87
2023/07/31 02:17:24;;;;;;;12.75;3.33;;;;;;;15.59;97.50;100888.13;4981165;28;20398;-87
2023/07/31 02:19:49;;;;;;;10.88;3.30;;;;;;;15.60;97.56;100889.84;4975043;28;20107;-87
2023/07/31 02:22:14;;;;;;;10.05;3.30;;;;;;;15.60;96.77;100887.22;4977409;28;20162;-87
2023/07/31 02:24:40;;;;;;;9.60;3.75;;;;;;;15.60;96.76;100873.28;4982871;28;20041;-88
2023/07/31 02:27:05;;;;;;;13.05;3.40;;;;;;;15.58;96.66;100870.69;4980577;28;20053;-87
2023/07/31 02:29:30;;;;;;;10.25;3.47;;;;;;;15.56;96.58;100883.03;4983762;28;20108;-88
2023/07/31 02:31:56;;;;;;;9.75;3.65;;;;;;;15.56;96.78;100872.53;4975049;28;20045;-87
2023/07/31 02:34:21;;;;;;;10.48;3.78;;;;;;;15.55;96.79;100875.25;4983598;28;20030;-87
2023/07/31 02:36:46;;;;;;;10.70;3.70;;;;;;;15.54;96.36;100869.13;4980092;28;20381;-87
2023/07/31 02:39:11;;;;;;;11.02;4.00;;;;;;;15.54;96.27;100869.13;4985438;28;20490;-88
2023/07/31 02:41:37;;;;;;;9.25;3.30;;;;;;;15.53;96.08;100864.84;4984236;28;20030;-87
2023/07/31 02:44:02;;;;;;;9.77;3.40;;;;;;;15.51;95.99;100869.31;4981020;28;20470;-86
2023/07/31 02:46:27;;;;;;;8.38;3.15;;;;;;;15.52;96.12;100865.75;4978041;28;20125;-87
2023/07/31 02:48:53;;;;;;;10.45;3.05;;;;;;;15.50;95.88;100856.25;4982231;28;20023;-87
2023/07/31 02:51:18;;;;;;;11.40;3.50;;;;;;;15.51;95.65;100858.81;4986868;28;20486;-87
2023/07/31 02:53:43;;;;;;;11.35;3.90;;;;;;;15.48;95.90;100853.72;4983376;28;20022;-87
2023/07/31 02:56:09;;;;;;;12.30;3.67;;;;;;;15.48;95.39;100856.34;4978659;28;20026;-87
2023/07/31 02:58:34;;;;;;;12.10;3.42;;;;;;;15.47;95.45;100857.25;4983841;28;20079;-87
2023/07/31 03:00:59;;;;;;;9.50;3.35;;;;;;;15.46;95.43;100856.38;4975238;28;20439;-87
2023/07/31 03:03:24;;;;;;;11.65;3.88;;;;;;;15.46;95.24;100861.63;4985387;28;20030;-87
2023/07/31 03:05:50;;;;;;;9.98;3.75;;;;;;;15.46;95.49;100855.53;4975799;28;20037;-87
2023/07/31 03:08:15;;;;;;;10.00;3.40;;;;;;;15.45;95.47;100854.72;4974398;28;20015;-87
2023/07/31 03:10:40;;;;;;;10.35;3.67;;;;;;;15.45;95.00;100849.47;4988858;28;20027;-87
2023/07/31 03:13:06;;;;;;;11.65;3.25;;;;;;;15.45;95.20;100848.59;4981481;28;20050;-88
2023/07/31 03:15:31;;;;;;;6.75;3.17;;;;;;;15.44;95.14;100844.28;4977469;28;20118;-88
2023/07/31 03:17:56;;;;;;;9.50;3.70;;;;;;;15.45;95.03;100854.72;4981656;28;20034;-88
2023/07/31 03:20:22;;;;;;;12.18;3.67;;;;;;;15.43;95.49;100859.16;4983488;28;20022;-88
2023/07/31 03:22:47;;;;;;;10.13;3.83;;;;;;;15.43;95.03;100846.06;4980979;28;20037;-88
2023/07/31 03:25:14;;;;;;;11.40;3.50;;;;;;;15.44;95.12;100860.00;4978007;28;20493;-87
2023/07/31 03:27:39;;;;;;;6.90;3.15;;;;;;;15.42;94.79;100860.09;4976998;28;20115;-88
2023/07/31 03:30:05;;;;;;;10.20;3.47;;;;;;;15.41;95.06;100847.91;4974014;28;20027;-88
2023/07/31 03:32:30;;;;;;;8.27;3.40;;;;;;;15.42;95.11;100857.47;4974335;28;20034;-88
2023/07/31 03:34:55;;;;;;;12.55;3.55;;;;;;;15.43;95.01;100845.19;4980867;28;20106;-88
2023/07/31 03:37:21;;;;;;;11.00;3.35;;;;;;;15.43;95.50;100850.44;4974241;28;20042;-88
2023/07/31 03:39:46;;;;;;;9.98;3.20;;;;;;;15.44;95.14;100844.28;4974104;28;20023;-87
2023/07/31 03:42:11;;;;;;;9.77;3.45;;;;;;;15.45;94.82;100832.88;4976693;28;20018;-88
2023/07/31 03:44:37;;;;;;;7.30;3.13;;;;;;;15.45;94.52;100830.25;4981877;28;20034;-88
2023/07/31 03:47:02;;;;;;;10.15;3.50;;;;;;;15.44;94.99;100820.69;4979534;28;20038;-87
2023/07/31 03:49:28;;;;;;;10.50;3.30;;;;;;;15.44;95.03;100816.31;4981318;28;20429;-88
2023/07/31 03:51:53;;;;;;;8.98;2.97;;;;;;;15.45;94.95;100823.25;4973547;28;20114;-88
2023/07/31 03:54:19;;;;;;;11.07;3.95;;;;;;;15.45;95.01;100812.75;4982081;28;20026;-88
2023/07/31 03:56:44;;;;;;;11.15;3.38;;;;;;;15.47;95.22;100815.31;4989534;28;20033;-88
2023/07/31 03:59:09;;;;;;;8.45;3.25;;;;;;;15.46;95.23;100814.44;4979742;28;20027;-88
2023/07/31 04:01:34;;;;;;;10.05;3.63;;;;;;;15.48;95.43;100812.59;4982949;28;20474;-87
2023/07/31 04:04:00;;;;;;;9.80;3.42;;;;;;;15.49;95.09;100808.22;4979888;28;20031;-87
2023/07/31 04:06:25;;;;;;;9.27;3.28;;;;;;;15.51;95.04;100818.63;4974449;28;20027;-88
2023/07/31 04:08:50;;;;;;;10.50;3.40;;;;;;;15.52;94.88;100801.97;4974113;28;20517;-87
2023/07/31 04:11:16;;;;;;;10.60;3.47;;;;;;;15.53;95.26;100807.16;4978246;28;20022;-88
2023/07/31 04:13:41;;;;;;;8.02;3.28;;;;;;;15.54;95.16;100808.00;4981305;28;20077;-88
2023/07/31 04:16:06;;;;;;;10.77;3.28;;;;;;;15.55;95.10;100805.28;4973517;28;20026;-87
2023/07/31 04:18:32;;;;;;;9.60;3.45;;;;;;;15.57;95.23;100795.56;4974141;28;20036;-88
2023/07/31 04:21:02;;;;;;;10.20;3.50;;;;;;;15.58;95.60;100797.28;4985383;28;20049;-87
2023/07/31 04:23:27;;;;;;;9.13;3.45;;;;;;;15.59;95.69;100796.34;4986277;28;20056;-88
2023/07/31 04:25:52;;;;;;;10.65;3.17;;;;;;;15.60;95.98;100799.84;4990395;28;20029;-88
2023/07/31 04:28:18;;;;;;;7.22;2.75;;;;;;;15.60;96.03;100789.34;4976875;28;20402;-87
2023/07/31 04:30:43;;;;;;;11.40;3.58;;;;;;;15.60;96.04;100800.69;4990359;28;20206;-88
2023/07/31 04:33:08;;;;;;;7.93;3.20;;;;;;;15.60;96.39;100792.81;4983937;28;20041;-88
2023/07/31 04:35:34;;;;;;;8.15;2.92;;;;;;;15.63;96.31;100791.81;4987526;28;20030;-88
2023/07/31 04:37:59;;;;;;;9.05;3.20;;;;;;;15.63;96.58;100790.06;4983411;28;20033;-87
2023/07/31 04:40:24;;;;;;;7.47;2.90;;;;;;;15.66;96.19;100788.22;4993258;28;20030;-88
2023/07/31 04:42:50;;;;;;;8.90;3.00;;;;;;;15.66;96.99;100788.22;4994945;28;20469;-88
2023/07/31 04:45:15;;;;;;;9.60;3.40;;;;;;;15.68;96.91;100791.63;4978571;28;20437;-87
2023/07/31 04:47:40;;;;;;;9.13;2.90;;;;;;;15.68;97.19;100781.13;4980678;28;20497;-88
2023/07/31 04:50:06;;;;;;;7.35;2.83;;;;;;;15.69;97.22;100777.56;4985986;28;20106;-87
2023/07/31 04:52:31;;;;;;;8.98;2.97;;;;;;;15.70;97.19;100766.16;4984565;28;20054;-87
2023/07/31 04:54:57;;;;;;;6.32;3.10;;;;;;;15.71;97.55;100770.50;4984751;28;20023;-88
2023/07/31 04:57:22;;;;;;;9.52;3.22;;;;;;;15.72;97.20;100775.66;4980426;28;20086;-88
2023/07/31 04:59:47;;;;;;;8.55;3.10;;;;;;;15.73;97.12;100773.84;4984791;28;20427;-88
2023/07/31 05:02:13;;;;;;;8.30;3.10;;;;;;;15.75;97.35;100758.91;4977947;28;20046;-88
2023/07/31 05:04:38;;;;;;;8.93;3.03;;;;;;;15.74;97.54;100762.44;4981824;28;20030;-88
2023/07/31 05:07:04;;;;;;;6.63;2.70;;;;;;;15.76;97.70;100753.59;4984081;28;20070;-87
2023/07/31 05:09:29;;;;;;;8.05;2.83;;;;;;;15.77;97.84;100750.06;4982285;28;20116;-88
2023/07/31 05:11:54;;;;;;;8.10;3.05;;;;;;;15.80;98.20;100751.66;4977479;28;20076;-87
2023/07/31 05:14:20;;;;;;;8.82;2.92;;;;;;;15.80;97.82;100748.22;4980935;28;20526;-88
2023/07/31 05:16:45;;;;;;;10.13;3.28;;;;;;;15.80;98.10;100754.28;4989987;28;20091;-88
2023/07/31 05:19:11;;;;;;;7.82;3.00;;;;;;;15.81;97.79;100753.38;4982912;28;20031;-88
2023/07/31 05:21:36;;;;;;;8.90;3.05;;;;;;;15.84;97.96;100739.25;4976422;28;20034;-88
2023/07/31 05:24:01;;;;;;;9.07;3.38;;;;;;;15.85;98.04;100740.94;4976155;28;20058;-87
2023/07/31 05:26:27;;;;;;;7.40;2.95;;;;;;;15.85;99.10;100741.84;4987144;28;20041;-88
2023/07/31 05:28:52;;;;;;;7.30;3.05;;;;;;;15.85;98.88;100739.22;4986678;28;20046;-87
2023/07/31 05:31:17;;;;;;;7.85;3.20;;;;;;;15.83;99.05;100733.16;4985393;28;20027;-87
2023/07/31 05:33:42;;;;;;;6.53;2.85;;;;;;;15.84;99.27;100741.84;4986029;28;20098;-87
2023/07/31 05:36:08;;;;;;;8.93;3.47;;;;;;;15.83;99.73;100737.53;4982471;28;20026;-87
2023/07/31 05:38:34;;;;;;;10.82;2.90;;;;;;;15.83;99.63;100734.91;4977811;28;20035;-87
2023/07/31 05:40:59;;;;;;;7.22;3.30;;;;;;;15.82;100.00;100741.94;4976837;28;20027;-88
2023/07/31 05:43:24;;;;;;;7.68;3.38;;;;;;;15.80;100.00;100732.47;4976074;28;20525;-87
2023/07/31 05:45:51;;;;;;;7.30;2.97;;;;;;;15.80;100.00;100733.31;4977911;28;20031;-88
2023/07/31 05:48:16;;;;;;;7.13;2.83;;;;;;;15.80;100.00;100735.09;4982044;28;20031;-87
2023/07/31 05:50:43;;;;;;;6.88;3.03;;;;;;;15.78;100.00;100732.53;4976666;28;20042;-88
2023/07/31 05:53:08;;;;;;;5.78;2.72;;;;;;;15.76;100.00;100732.63;4975847;28;20446;-86
2023/07/31 05:55:34;;;;;;;6.78;2.97;;;;;;;15.76;100.00;100722.13;4981649;28;20030;-87
2023/07/31 05:57:59;;;;;;;7.38;2.75;;;;;;;15.76;100.00;100718.63;4988551;28;20029;-87
2023/07/31 06:00:24;;;;;;;5.90;2.55;;;;;;;15.71;100.00;100710.16;4987117;28;20117;-87
2023/07/31 06:02:50;;;;;;;9.05;2.80;;;;;;;15.69;100.00;100706.78;4975294;28;20038;-87
2023/07/31 06:05:15;;;;;;;7.15;2.55;;;;;;;15.66;100.00;100693.81;4981047;28;20030;-86
2023/07/31 06:07:40;;;;;;;5.35;2.30;;;;;;;15.63;100.00;100700.03;4977943;28;20031;-87
2023/07/31 06:10:06;;;;;;;3.80;2.10;;;;;;;15.60;100.00;100706.28;4985415;28;20172;-87
2023/07/31 06:12:33;;;;;;;5.15;1.80;;;;;;;15.60;100.00;100700.19;4981299;28;20102;-87
2023/07/31 06:14:58;;;;;;;6.78;2.30;;;;;;;15.58;100.00;100705.50;4975934;28;20034;-86
2023/07/31 06:17:23;;;;;;;4.63;2.03;;;;;;;15.59;100.00;100704.56;4977525;28;20085;-87
2023/07/31 06:19:49;;;;;;;2.95;1.85;;;;;;;15.58;100.00;100697.63;4982614;28;20241;-87
2023/07/31 06:22:15;;;;;;;3.22;1.90;;;;;;;15.58;100.00;100702.88;4981852;28;20031;-87
2023/07/31 06:24:40;;;;;;;3.35;1.90;;;;;;;15.57;100.00;100698.56;4980389;28;20030;-86
2023/07/31 06:27:06;;;;;;;3.67;1.90;;;;;;;15.57;100.00;100701.19;4978763;28;20098;-87
2023/07/31 06:29:31;;;;;;;3.35;1.60;;;;;;;15.58;100.00;100707.28;4986694;28;20588;-87
2023/07/31 06:31:56;;;;;;;3.20;1.70;;;;;;;15.59;100.00;100704.56;4984045;28;20026;-88
2023/07/31 06:34:22;;;;;;;3.20;1.80;;;;;;;15.61;100.00;100696.66;4977727;28;20027;-88
2023/07/31 06:36:47;;;;;;;3.08;1.67;;;;;;;15.63;100.00;100689.53;4978119;28;20469;-88
2023/07/31 06:39:13;;;;;;;3.03;1.50;;;;;;;15.66;100.00;100693.81;4976588;28;20034;-87
2023/07/31 06:41:38;;;;;;;3.58;1.75;;;;;;;15.67;100.00;100687.63;4986317;28;20026;-87
2023/07/31 06:44:04;;;;;;;2.60;1.52;;;;;;;15.67;100.00;100685.84;4986459;28;20105;-88
2023/07/31 06:46:29;;;;;;;3.95;1.80;;;;;;;15.70;100.00;100679.63;4987398;28;20066;-88
2023/07/31 06:48:55;;;;;;;2.47;1.73;;;;;;;15.71;100.00;100681.31;4981435;28;20105;-88
2023/07/31 06:51:20;;;;;;;3.00;1.60;;;;;;;15.71;100.00;100679.53;4991535;28;20044;-88
2023/07/31 06:53:45;;;;;;;2.67;1.65;;;;;;;15.72;100.00;100667.25;4978661;28;20472;-88
2023/07/31 06:56:11;;;;;;;2.97;1.85;;;;;;;15.71;100.00;100671.66;4987812;28;20080;-87
2023/07/31 06:58:36;;;;;;;3.72;1.90;;;;;;;15.73;100.00;100674.19;4982419;28;20035;-87
2023/07/31 07:01:01;;;;;;;3.22;1.90;;;;;;;15.74;100.00;100662.78;4995439;28;20025;-87
2023/07/31 07:03:27;;;;;;;3.85;1.90;;;;;;;15.73;100.00;100661.94;4977338;28;20390;-88
2023/07/31 07:05:52;;;;;;;2.92;1.90;;;;;;;15.74;100.00;100661.03;4978602;28;20498;-88
2023/07/31 07:08:18;;;;;;;4.47;1.95;;;;;;;15.74;100.00;100662.78;4979914;28;20033;-87
2023/07/31 07:10:43;;;;;;;3.72;1.90;;;;;;;15.75;100.00;100659.22;4981373;28;20033;-88
2023/07/31 07:13:09;;;;;;;2.80;1.75;;;;;;;15.75;100.00;100661.84;4982396;28;20474;-87
2023/07/31 07:15:34;;;;;;;3.05;1.92;;;;;;;15.75;100.00;100656.59;4979471;28;20022;-89
2023/07/31 07:18:00;;;;;;;3.85;1.95;;;;;;;15.76;100.00;100650.44;4974513;28;20031;-88
2023/07/31 07:20:25;;;;;;;2.45;1.80;;;;;;;15.80;100.00;100651.16;4991840;28;20025;-88
2023/07/31 07:22:50;;;;;;;2.97;1.80;;;;;;;15.83;100.00;100651.84;4974674;28;20572;-86
2023/07/31 07:25:15;;;;;;;2.88;1.85;;;;;;;15.86;100.00;100651.72;4973586;28;20080;-87
2023/07/31 07:27:41;;;;;;;3.22;1.73;;;;;;;15.88;100.00;100652.50;4974487;28;20407;-88
2023/07/31 07:30:07;;;;;;;2.58;1.50;;;;;;;15.89;100.00;100638.41;4980106;28;20030;-87
2023/07/31 07:32:32;;;;;;;2.97;1.70;;;;;;;15.91;100.00;100644.44;4974005;28;20034;-88
2023/07/31 07:34:57;;;;;;;2.72;1.90;;;;;;;15.95;100.00;100652.16;4976680;28;20026;-87
2023/07/31 07:37:22;;;;;;;3.00;1.60;;;;;;;15.95;100.00;100646.91;4976615;28;20339;-88
2023/07/31 07:39:48;;;;;;;2.45;1.80;;;;;;;15.95;100.00;100645.16;4980645;28;20112;-88
2023/07/31 07:42:13;;;;;;;2.83;1.70;;;;;;;15.95;100.00;100657.41;4978811;28;20475;-88
2023/07/31 07:44:38;;;;;;;2.67;1.88;;;;;;;15.93;100.00;100655.72;4979123;28;20062;-89
2023/07/31 07:47:08;;;;;;;2.03;1.40;;;;;;;15.93;100.00;100660.13;4978966;28;20394;-87
2023/07/31 07:49:35;;;;;;;2.40;1.50;;;;;;;15.92;100.00;100654.00;4975540;28;20406;-87
2023/07/31 07:52:00;;;;;;;2.00;1.60;;;;;;;15.89;100.00;100651.53;4976378;28;20027;-87
2023/07/31 07:54:26;;;;;;;2.75;1.52;;;;;;;15.89;100.00;100654.16;4974022;28;20033;-87
2023/07/31 07:56:51;;;;;;;3.42;1.70;;;;;;;15.89;100.00;100651.53;4974900;28;20557;-89
2023/07/31 07:59:16;;;;;;;3.10;1.80;;;;;;;15.87;100.00;100639.44;4988261;28;20133;-88
2023/07/31 08:01:42;;;;;;;3.35;1.80;;;;;;;15.86;100.00;100649.09;4981939;28;20485;-87
2023/07/31 08:04:07;;;;;;;4.07;2.00;;;;;;;15.86;100.00;100649.09;4980731;28;20474;-88
2023/07/31 08:06:32;;;;;;;3.75;2.03;;;;;;;15.88;100.00;100642.00;4981117;28;20023;-88
2023/07/31 08:08:57;;;;;;;2.70;2.10;;;;;;;15.90;100.00;100649.78;4987894;28;20018;-88
2023/07/31 08:11:23;;;;;;;5.85;2.53;;;;;;;15.93;100.00;100644.38;4981560;28;20137;-89
2023/07/31 08:13:49;;;;;;;3.55;2.25;;;;;;;15.93;100.00;100645.22;4983026;28;20054;-88
2023/07/31 08:16:14;;;;;;;4.90;2.60;;;;;;;15.91;100.00;100639.19;4978983;28;20801;-88
2023/07/31 08:18:40;;;;;;;4.05;2.35;;;;;;;15.92;100.00;100640.88;4981254;28;20034;-88
2023/07/31 08:21:05;;;;;;;4.13;2.40;;;;;;;15.93;100.00;100645.22;4977743;28;20194;-89
2023/07/31 08:23:31;;;;;;;5.78;2.67;;;;;;;15.94;100.00;100643.44;4983822;28;20034;-88
2023/07/31 08:25:56;;;;;;;4.82;2.28;;;;;;;15.96;100.00;100636.34;4979534;28;20034;-87
2023/07/31 08:28:22;;;;;;;4.00;2.60;;;;;;;15.98;100.00;100641.50;4980500;28;20062;-89
2023/07/31 08:30:47;;;;;;;5.22;2.78;;;;;;;16.00;100.00;100626.53;4980409;28;20069;-88
2023/07/31 08:33:12;;;;;;;3.97;2.38;;;;;;;16.01;100.00;100639.56;4983383;28;20027;-88
2023/07/31 08:35:37;;;;;;;4.53;2.60;;;;;;;16.02;100.00;100643.06;4988359;28;20023;-87
2023/07/31 08:38:03;;;;;;;5.00;2.60;;;;;;;16.02;100.00;100637.81;4978890;28;20045;-88
2023/07/31 08:40:29;;;;;;;4.88;2.50;;;;;;;16.03;100.00;100634.25;4991060;28;20026;-88
2023/07/31 08:42:56;;;;;;;5.22;2.53;;;;;;;16.03;100.00;100634.25;4994853;28;20504;-87
2023/07/31 08:45:22;;;;;;;3.72;2.20;;;;;;;16.06;100.00;100636.69;5011360;28;20147;-89
2023/07/31 08:47:51;;;;;;;5.47;2.42;;;;;;;16.06;100.00;100634.06;5015858;28;20054;-87
2023/07/31 08:50:20;;;;;;;4.03;2.40;;;;;;;16.05;100.00;100632.41;5000967;28;20056;-88
2023/07/31 08:52:47;;;;;;;4.07;2.38;;;;;;;16.03;100.00;100639.50;4996029;28;20058;-88
2023/07/31 08:55:12;;;;;;;5.10;2.75;;;;;;;16.03;100.00;100645.59;4993291;28;20092;-90
2023/07/31 08:57:39;;;;;;;5.32;2.50;;;;;;;16.03;100.00;100635.09;4985246;28;20435;-88
2023/07/31 09:00:06;;;;;;;4.63;2.60;;;;;;;16.05;100.00;100632.41;4987291;28;21622;-90
2023/07/31 09:02:41;;;;;;;3.63;2.35;;;;;;;16.06;100.00;100637.56;4990083;28;20033;-89
2023/07/31 09:05:07;;;;;;;4.22;2.58;;;;;;;16.06;100.00;100639.31;4985028;28;20448;-89
2023/07/31 09:07:35;;;;;;;7.25;2.67;;;;;;;16.06;100.00;100639.31;4987283;28;20097;-88
2023/07/31 09:10:01;;;;;;;5.60;2.95;;;;;;;16.07;100.00;100641.03;4984400;28;20031;-90
2023/07/31 09:12:27;;;;;;;5.38;2.88;;;;;;;16.06;100.00;100629.69;4981550;28;20038;-89
2023/07/31 09:14:53;;;;;;;4.45;2.72;;;;;;;16.06;100.00;100639.31;4982916;28;20030;-89
2023/07/31 09:17:36;;;;;;;4.82;3.00;;;;;;;16.06;100.00;100631.44;4983219;28;20433;-89
2023/07/31 09:20:21;;;;;;;7.10;3.08;;;;;;;16.08;100.00;100633.09;4991835;28;20027;-91
2023/07/31 09:22:48;;;;;;;7.65;3.20;;;;;;;16.09;100.00;100623.41;4983079;28;20041;-90
2023/07/31 09:25:25;;;;;;;6.43;3.50;;;;;;;16.08;100.00;100608.59;4985735;28;20398;-90
2023/07/31 09:27:58;;;;;;;5.15;2.90;;;;;;;16.11;100.00;100621.56;4983256;28;20066;-89
2023/07/31 09:30:24;;;;;;;5.95;3.30;;;;;;;16.14;100.00;100621.41;4983760;28;20094;-88
2023/07/31 09:32:51;;;;;;;5.13;3.28;;;;;;;16.17;100.00;100613.38;4982423;28;20034;-89
2023/07/31 09:35:22;;;;;;;6.40;3.17;;;;;;;16.24;100.00;100614.72;4982239;28;20050;-90
2023/07/31 09:37:52;;;;;;;6.82;3.42;;;;;;;16.30;100.00;100604.84;4985316;28;21276;-89
2023/07/31 09:40:27;;;;;;;6.55;3.17;;;;;;;16.32;100.00;100609.06;4985757;28;20022;-88
2023/07/31 09:42:53;;;;;;;6.22;2.95;;;;;;;16.33;100.00;100599.44;4983753;28;20022;-89
2023/07/31 09:45:19;;;;;;;4.75;3.20;;;;;;;16.34;100.00;100601.97;4983353;28;20069;-90
2023/07/31 09:47:50;;;;;;;6.50;3.17;;;;;;;16.38;100.00;100600.88;4986363;28;20053;-90
2023/07/31 09:50:16;;;;;;;5.15;3.00;;;;;;;16.42;100.00;100613.84;4984102;28;20027;-89
2023/07/31 09:52:42;;;;;;;4.97;2.92;;;;;;;16.45;100.00;100604.00;4985735;28;20031;-91
2023/07/31 09:55:08;;;;;;;7.82;3.25;;;;;;;16.49;100.00;100609.94;4986627;28;20022;-88
2023/07/31 09:57:34;;;;;;;6.47;2.83;;;;;;;16.56;100.00;100606.06;4992036;28;20037;-91
2023/07/31 10:00:00;;;;;;;5.20;2.90;;;;;;;16.59;100.00;100605.03;4984219;28;20030;-90
2023/07/31 10:02:27;;;;;;;5.72;3.13;;;;;;;16.59;100.00;100612.91;4984775;28;20089;-89
2023/07/31 10:04:57;;;;;;;6.47;3.00;;;;;;;16.59;100.00;100603.28;4990235;28;20051;-88
2023/07/31 10:07:25;;;;;;;7.80;3.50;;;;;;;16.64;100.00;100606.50;4989502;28;20062;-88
2023/07/31 10:09:53;;;;;;;5.50;3.00;;;;;;;16.71;100.00;100600.88;4986669;28;20037;-91
2023/07/31 10:12:19;;;;;;;7.35;3.20;;;;;;;16.76;100.00;100604.94;4981442;28;20045;-89
2023/07/31 10:14:44;;;;;;;5.30;3.03;;;;;;;16.77;100.00;100603.19;4982838;28;20022;-89
2023/07/31 10:17:10;;;;;;;5.32;2.55;;;;;;;16.78;100.00;100597.00;4981070;28;20196;-90
2023/07/31 10:19:36;;;;;;;4.10;2.63;;;;;;;16.78;100.00;100610.97;4979935;28;20393;-91
2023/07/31 10:22:03;;;;;;;6.50;2.85;;;;;;;16.78;100.00;100608.34;4980953;28;20562;-89
2023/07/31 10:24:29;;;;;;;5.50;2.90;;;;;;;16.78;100.00;100603.09;4978637;28;20038;-90
2023/07/31 10:26:58;;;;;;;5.45;2.65;;;;;;;16.83;100.00;100603.69;4978984;28;20382;-89
2023/07/31 10:29:24;;;;;;;4.15;2.42;;;;;;;16.92;100.00;100596.19;4982717;28;20062;-89
2023/07/31 10:31:51;;;;;;;6.43;3.00;;;;;;;17.01;100.00;100593.09;4978901;28;20035;-88
2023/07/31 10:34:17;;;;;;;5.05;2.60;;;;;;;17.04;100.00;100590.31;4981736;28;20041;-90
2023/07/31 10:36:42;;;;;;;5.72;2.65;;;;;;;17.05;100.00;100592.00;4980547;28;20034;-88
2023/07/31 10:39:33;;;;;;;7.80;3.13;;;;;;;17.06;100.00;100598.94;4982164;28;20394;-89
2023/07/31 10:41:59;;;;;;;3.65;2.28;;;;;;;17.06;100.00;100596.31;4983931;28;20406;-88
2023/07/31 10:44:24;;;;;;;5.60;2.65;;;;;;;17.07;100.00;100594.53;4982127;28;20081;-88
2023/07/31 10:46:49;;;;;;;4.90;2.80;;;;;;;17.08;100.00;100594.44;4979771;28;20035;-86
2023/07/31 10:49:21;;;;;;;6.15;2.75;;;;;;;17.11;100.00;100591.63;4980178;28;20038;-89
2023/07/31 10:51:47;;;;;;;5.82;2.80;;;;;;;17.14;100.00;100585.38;4983800;28;20022;-89
2023/07/31 10:54:15;;;;;;;5.47;2.78;;;;;;;17.16;100.00;100588.75;4980499;28;20034;-88
2023/07/31 10:56:44;;;;;;;4.35;2.50;;;;;;;17.20;100.00;100590.25;4981569;28;20022;-87
2023/07/31 10:59:12;;;;;;;4.55;2.53;;;;;;;17.23;100.00;100591.88;4979121;28;20038;-89
2023/07/31 11:01:57;;;;;;;4.00;2.33;;;;;;;17.26;100.00;100592.53;4979333;28;20051;-89
2023/07/31 11:04:24;;;;;;;4.18;2.22;;;;;;;17.26;100.00;100595.16;4977868;28;20026;-89
2023/07/31 11:07:00;;;;;;;4.55;2.60;;;;;;;17.26;100.00;100587.28;4981212;28;20026;-89
2023/07/31 11:09:30;;;;;;;3.63;2.05;;;;;;;17.28;100.00;100590.66;4981528;28;20084;-92
2023/07/31 11:11:56;;;;;;;3.47;2.35;;;;;;;17.33;100.00;100590.41;4980076;28;20033;-90
2023/07/31 11:14:22;;;;;;;4.72;2.53;;;;;;;17.36;100.00;100584.97;4984851;28;20046;-87